LIRQ/FLR METAR and TAF weather

Enter ICAO airport designator
Station Type Date Time Source
LIRQ METAR 2021/07/29 18:50 UTC NOAA

LIRQ 291850Z 27006KT CAVOK 30/16 Q1012


Station Type Date Time Source
LIRQ Decoded METAR 2021/07/29 18:50 UTC NOAA

Firenze / Peretola, Italy (LIRQ) 43-48N 011-12E 38M
Jul 29, 2021 - 02:50 PM EDT / 2021.07.29 1850 UTC
Wind: from the W (270 degrees) at 7 MPH (6 KT):0
Visibility: greater than 7 mile(s):0
Temperature: 86 F (30 C)
Dew Point: 60 F (16 C)
Relative Humidity: 42%
Pressure (altimeter): 29.88 in. Hg (1012 hPa)
ob: LIRQ 291850Z 27006KT CAVOK 30/16 Q1012
cycle: 19

Station Type Date Time Source
LIRQ TAF 2021/07/29 18:24 UTC NOAA

TAF LIRQ 291700Z 2918/3018 27010KT CAVOK
BECMG 2918/2920 VRB05KT
BECMG 3010/3012 26012KT
BECMG 3016/3018 VRB05KT

Example: see airport list